Kezdőlap
METAR-TAF:

METAR-TAF

Repülőterek :

Nairobi, Kenya

Wilson repülőtér

földrajzi szélesség: 01-19S, földrajzi hosszúság: 036-49E, magasság: 1683 m

Jelenlegi meteorológiai megfigyelések

A jelentés 1 órával és 0 perccel ezelõtt készült, 13:00 UTC
Keleti szél 20 kt
Hőmérséklet 29°C
Páratartalom 23%
Légköri nyomás 1015 hPa
Látótávolság 10 km, vagy több
Szórványos felhőzet 3100 lábon

METAR: HKNW 241300Z 09020KT 9999 SCT031 29/06 Q1015

Idő: 17:00 (14:00 UTC)


TAF: hiányzik

Meteorológiai megfigyelések és előrejelzések több, mint 4000 repülőtéren (METAR és TAF jelentéseket).

A térképen piros és sárga pontok jelzik az elérhető meteorológiai állomásokat.

Mozgassa az egeret a pont fölött, hogy megjelenjen az állomás neve.

Azután kattintson az időjárási megfigyelések és előrejelzések megtekintéséhez.

A térkép megváltoztatása: kattintson a fekete keresztel jelölt zöld gombra ráközelítéshez, a vonallal jelölt zöld gombra távolításhoz, vagy a zöld nyilakra a szomszédos térképek eléréséhez.


METAR-TAF: